Time;durP1;ratioP1;P1;durP2;ratioP2;P2;SDS_P1;SDS_P2;PMS_P1;PMS_P2;Temp;Humidity;BMP_temperature;BMP_pressure;BME280_temperature;BME280_humidity;BME280_pressure;Samples;Min_cycle;Max_cycle;Signal;HPM_P1;HPM_P2
2022/11/26 00:01:48;;;;;;;;;;;;;;;-144.99;100.00;52568.34;5043358;28;19939;-73
2022/11/26 00:04:16;;;;;;;;;;;;;;;-144.99;100.00;52582.63;5049216;28;20389;-73
2022/11/26 00:06:43;;;;;;;;;;;;;;;-144.99;100.00;52545.94;5067882;28;20149;-73
2022/11/26 00:09:13;;;;;;;;;;;;;;;-144.99;100.00;52582.63;5034206;28;20233;-72
2022/11/26 00:11:40;;;;;;;;;;;;;;;-144.99;100.00;52570.38;5045521;28;20012;-73
2022/11/26 00:14:11;;;;;;;;;;;;;;;-144.99;100.00;52631.53;5045495;28;19944;-73
2022/11/26 00:16:38;;;;;;;;;;;;;;;-144.99;100.00;52605.03;5054663;28;19944;-74
2022/11/26 00:19:04;;;;;;;;;;;;;;;-144.99;100.00;52594.84;5041431;28;20294;-73
2022/11/26 00:21:36;;;;;;;;;;;;;;;-144.99;100.00;52541.84;5062126;28;19994;-74
2022/11/26 00:24:03;;;;;;;;;;;;;;;-144.99;100.00;52615.25;5031050;28;20462;-73
2022/11/26 00:26:29;;;;;;;;;;;;;;;-144.99;100.00;52566.31;5045147;28;19988;-74
2022/11/26 00:28:58;;;;;;;;;;;;;;;-144.99;100.00;52570.38;5065304;28;20195;-73
2022/11/26 00:31:25;;;;;;;;;;;;;;;-144.99;100.00;52564.28;5039296;28;20089;-72
2022/11/26 00:33:52;;;;;;;;;;;;;;;-144.99;100.00;52590.78;5041011;28;20003;-72
2022/11/26 00:36:20;;;;;;;;;;;;;;;-144.99;100.00;52582.63;5040463;28;20016;-72
2022/11/26 00:38:51;;;;;;;;;;;;;;;-144.99;100.00;52578.53;5051173;28;19935;-72
2022/11/26 00:41:19;;;;;;;;;;;;;;;-144.99;100.00;52550.00;5055897;28;20208;-77
2022/11/26 00:43:46;;;;;;;;;;;;;;;-144.99;100.00;52572.44;5074928;28;19944;-77
2022/11/26 00:46:13;;;;;;;;;;;;;;;-144.99;100.00;52570.38;5068992;28;19924;-72
2022/11/26 00:48:39;;;;;;;;;;;;;;;-144.99;100.00;52558.16;5056076;28;19974;-72
2022/11/26 00:51:06;;;;;;;;;;;;;;;-144.99;100.00;52545.94;5038413;28;19971;-72
2022/11/26 00:53:32;;;;;;;;;;;;;;;-144.99;100.00;52609.13;5051255;28;19955;-72
2022/11/26 00:56:00;;;;;;;;;;;;;;;-144.99;100.00;52607.09;5065462;28;20387;-72
2022/11/26 00:58:28;;;;;;;;;;;;;;;-144.99;100.00;52582.63;5054626;28;20406;-72
2022/11/26 01:00:56;;;;;;;;;;;;;;;-144.99;100.00;52607.09;5055651;28;20335;-74
2022/11/26 01:03:23;;;;;;;;;;;;;;;-144.99;100.00;52584.66;5045599;28;20432;-73
2022/11/26 01:05:50;;;;;;;;;;;;;;;-144.99;100.00;52594.84;5061275;28;19969;-77
2022/11/26 01:08:26;;;;;;;;;;;;;;;-144.99;100.00;52607.09;5058019;28;19987;-77
2022/11/26 01:10:52;;;;;;;;;;;;;;;-144.99;100.00;52570.38;5051733;28;19964;-74
2022/11/26 01:13:20;;;;;;;;;;;;;;;-144.99;100.00;52578.53;5050879;28;19988;-74
2022/11/26 01:15:47;;;;;;;;;;;;;;;-144.99;100.00;52572.44;5073592;28;19945;-75
2022/11/26 01:18:16;;;;;;;;;;;;;;;-144.99;100.00;52574.47;5073848;28;19943;-75
2022/11/26 01:20:42;;;;;;;;;;;;;;;-144.99;100.00;52582.63;5063899;28;19928;-73
2022/11/26 01:23:10;;;;;;;;;;;;;;;-144.99;100.00;52547.97;5059349;28;19986;-76
2022/11/26 01:25:36;;;;;;;;;;;;;;;-144.99;100.00;52570.38;5063316;28;19935;-76
2022/11/26 01:28:03;;;;;;;;;;;;;;;-144.99;100.00;52600.97;5077567;28;19924;-75
2022/11/26 01:30:32;;;;;;;;;;;;;;;-144.99;100.00;52574.47;5052497;28;19958;-75
2022/11/26 01:32:59;;;;;;;;;;;;;;;-144.99;100.00;52570.38;5055539;28;19981;-77
2022/11/26 01:35:27;;;;;;;;;;;;;;;-144.99;100.00;52584.66;5057701;28;19997;-76
2022/11/26 01:37:54;;;;;;;;;;;;;;;-144.99;100.00;52586.69;5051426;28;19931;-78
2022/11/26 01:40:33;;;;;;;;;;;;;;;-144.99;100.00;52603.00;5051942;28;20339;-76
2022/11/26 01:43:00;;;;;;;;;;;;;;;-144.99;100.00;52533.69;5051402;28;19956;-76
2022/11/26 01:45:26;;;;;;;;;;;;;;;-144.99;100.00;52554.09;5061559;28;19963;-77
2022/11/26 01:47:54;;;;;;;;;;;;;;;-144.99;100.00;52578.53;5081209;28;19986;-76
2022/11/26 01:50:51;;;;;;;;;;;;;;;-144.99;100.00;52582.63;5052933;28;19952;-76
2022/11/26 01:53:21;;;;;;;;;;;;;;;-144.99;100.00;52592.81;5059008;28;20012;-78
2022/11/26 01:55:49;;;;;;;;;;;;;;;-144.99;100.00;52598.94;5075235;28;19962;-74
2022/11/26 01:58:17;;;;;;;;;;;;;;;-144.99;100.00;52570.38;5053639;28;19975;-74
2022/11/26 02:00:44;;;;;;;;;;;;;;;-144.99;100.00;52600.97;5039239;28;19928;-75
2022/11/26 02:03:12;;;;;;;;;;;;;;;-144.99;100.00;52594.84;5044110;28;19929;-72
2022/11/26 02:05:41;;;;;;;;;;;;;;;-144.99;100.00;52611.16;5051644;28;19929;-72
2022/11/26 02:08:08;;;;;;;;;;;;;;;-144.99;100.00;52570.38;5044046;28;20017;-72
2022/11/26 02:10:35;;;;;;;;;;;;;;;-144.99;100.00;52594.84;5032911;28;19947;-73
2022/11/26 02:13:02;;;;;;;;;;;;;;;-144.99;100.00;52607.09;5031323;28;19980;-72
2022/11/26 02:15:30;;;;;;;;;;;;;;;-144.99;100.00;52611.16;5051290;28;19937;-74
2022/11/26 02:18:00;;;;;;;;;;;;;;;-144.99;100.00;52629.50;5041284;28;19947;-72
2022/11/26 02:20:41;;;;;;;;;;;;;;;-144.99;100.00;52586.69;5050165;28;19940;-72
2022/11/26 02:23:18;;;;;;;;;;;;;;;-144.99;100.00;52594.84;5043793;28;20003;-72
2022/11/26 02:26:01;;;;;;;;;;;;;;;-144.99;100.00;52598.94;5055517;28;20519;-72
2022/11/26 02:28:35;;;;;;;;;;;;;;;-144.99;100.00;52574.47;5048695;28;19927;-72
2022/11/26 02:31:08;;;;;;;;;;;;;;;-144.99;100.00;52586.69;5057888;28;19983;-77
2022/11/26 02:33:37;;;;;;;;;;;;;;;-144.99;100.00;52590.78;5061952;28;20350;-72
2022/11/26 02:36:07;;;;;;;;;;;;;;;-144.99;100.00;52586.69;5038682;28;20339;-74
2022/11/26 02:38:36;;;;;;;;;;;;;;;-144.99;100.00;52550.00;5049892;28;19975;-74
2022/11/26 02:41:05;;;;;;;;;;;;;;;-144.99;100.00;52613.19;5035440;28;19961;-73
2022/11/26 02:43:33;;;;;;;;;;;;;;;-144.99;100.00;52594.84;5044198;28;19984;-74
2022/11/26 02:46:04;;;;;;;;;;;;;;;-144.99;100.00;52586.69;5050599;28;19990;-73
2022/11/26 02:48:34;;;;;;;;;;;;;;;-144.99;100.00;52566.31;5048904;28;19965;-72
2022/11/26 02:51:01;;;;;;;;;;;;;;;-144.99;100.00;52607.09;5028233;28;19971;-72
2022/11/26 02:53:30;;;;;;;;;;;;;;;-144.99;100.00;52600.97;5040769;28;19947;-72
2022/11/26 02:56:01;;;;;;;;;;;;;;;-144.99;100.00;52582.63;5051276;28;19956;-73
2022/11/26 02:58:28;;;;;;;;;;;;;;;-144.99;100.00;52554.09;5028674;28;19987;-72
2022/11/26 03:00:57;;;;;;;;;;;;;;;-144.99;100.00;52574.47;5028723;28;19965;-72
2022/11/26 03:03:25;;;;;;;;;;;;;;;-144.99;100.00;52574.47;5037671;28;20054;-77
2022/11/26 03:05:54;;;;;;;;;;;;;;;-144.99;100.00;52588.75;5055969;28;19926;-81
2022/11/26 03:08:21;;;;;;;;;;;;;;;-144.99;100.00;52594.84;5054041;28;19948;-78
2022/11/26 03:10:48;;;;;;;;;;;;;;;-144.99;100.00;52635.63;5033794;28;19967;-74
2022/11/26 03:13:14;;;;;;;;;;;;;;;-144.99;100.00;52570.38;5033327;28;19982;-74
2022/11/26 03:15:41;;;;;;;;;;;;;;;-144.99;100.00;52594.84;5057205;28;20005;-72
2022/11/26 03:18:07;;;;;;;;;;;;;;;-144.99;100.00;52582.63;5056647;28;20297;-72
2022/11/26 03:20:34;;;;;;;;;;;;;;;-144.99;100.00;52611.16;5056137;28;20004;-72
2022/11/26 03:23:02;;;;;;;;;;;;;;;-144.99;100.00;52598.94;5053827;28;19943;-72
2022/11/26 03:25:28;;;;;;;;;;;;;;;-144.99;100.00;52611.16;5058421;28;19928;-72
2022/11/26 03:27:55;;;;;;;;;;;;;;;-144.99;100.00;52596.88;5042689;28;20009;-74
2022/11/26 03:30:21;;;;;;;;;;;;;;;-144.99;100.00;52598.94;5038457;28;20069;-73
2022/11/26 03:32:48;;;;;;;;;;;;;;;-144.99;100.00;52566.31;5050180;28;19959;-72
2022/11/26 03:35:14;;;;;;;;;;;;;;;-144.99;100.00;52586.69;5051366;28;19984;-76
2022/11/26 03:37:41;;;;;;;;;;;;;;;-144.99;100.00;52570.38;5031395;28;19983;-73
2022/11/26 03:40:09;;;;;;;;;;;;;;;-144.99;100.00;52600.97;5031480;28;19990;-74
2022/11/26 03:42:36;;;;;;;;;;;;;;;-144.99;100.00;52586.69;5037059;28;19969;-75
2022/11/26 03:45:02;;;;;;;;;;;;;;;-144.99;100.00;52594.84;5048389;28;20399;-76
2022/11/26 03:47:29;;;;;;;;;;;;;;;-144.99;100.00;52598.94;5043547;28;20438;-75
2022/11/26 03:49:55;;;;;;;;;;;;;;;-144.99;100.00;52582.63;5040306;28;19963;-75
2022/11/26 03:52:22;;;;;;;;;;;;;;;-144.99;100.00;52566.31;5039425;28;19971;-74
2022/11/26 03:54:48;;;;;;;;;;;;;;;-144.99;100.00;52615.25;5051208;28;19960;-74
2022/11/26 03:57:16;;;;;;;;;;;;;;;-144.99;100.00;52615.25;5046569;28;19982;-77
2022/11/26 03:59:43;;;;;;;;;;;;;;;-144.99;100.00;52598.94;5031686;28;19955;-75
2022/11/26 04:02:09;;;;;;;;;;;;;;;-144.99;100.00;52552.03;5033384;28;20007;-72
2022/11/26 04:04:36;;;;;;;;;;;;;;;-144.99;100.00;52619.31;5052964;28;20016;-72
2022/11/26 04:07:02;;;;;;;;;;;;;;;-144.99;100.00;52594.84;5037101;28;19994;-71
2022/11/26 04:09:29;;;;;;;;;;;;;;;-144.99;100.00;52590.78;5041192;28;19977;-72
2022/11/26 04:11:55;;;;;;;;;;;;;;;-144.99;100.00;52607.09;5033591;28;19964;-74
2022/11/26 04:14:23;;;;;;;;;;;;;;;-144.99;100.00;52586.69;5038662;28;20416;-72
2022/11/26 04:16:49;;;;;;;;;;;;;;;-144.99;100.00;52588.75;5059169;28;19968;-74
2022/11/26 04:19:16;;;;;;;;;;;;;;;-144.99;100.00;52598.94;5048329;28;19935;-76
2022/11/26 04:21:42;;;;;;;;;;;;;;;-144.99;100.00;52580.59;5077747;28;19929;-74
2022/11/26 04:24:09;;;;;;;;;;;;;;;-144.99;100.00;52580.59;5047477;28;19972;-75
2022/11/26 04:26:36;;;;;;;;;;;;;;;-144.99;100.00;52594.84;5055669;28;20012;-76
2022/11/26 04:29:02;;;;;;;;;;;;;;;-144.99;100.00;52574.47;5031883;28;19943;-74
2022/11/26 04:31:30;;;;;;;;;;;;;;;-144.99;100.00;52586.69;5032731;28;20008;-71
2022/11/26 04:33:57;;;;;;;;;;;;;;;-144.99;100.00;52623.38;5042358;28;20356;-74
2022/11/26 04:36:23;;;;;;;;;;;;;;;-144.99;100.00;52562.25;5030923;28;20011;-75
2022/11/26 04:38:50;;;;;;;;;;;;;;;-144.99;100.00;52611.16;5031324;28;20002;-74
2022/11/26 04:41:16;;;;;;;;;;;;;;;-144.99;100.00;52590.78;5044186;28;20045;-73
2022/11/26 04:43:44;;;;;;;;;;;;;;;-144.99;100.00;52615.25;5045145;28;19935;-74
2022/11/26 04:46:10;;;;;;;;;;;;;;;-144.99;100.00;52621.34;5046956;28;19941;-76
2022/11/26 04:48:38;;;;;;;;;;;;;;;-144.99;100.00;52629.50;5059983;28;20029;-75
2022/11/26 04:51:05;;;;;;;;;;;;;;;-144.99;100.00;52594.84;5032907;28;20031;-73
2022/11/26 04:53:32;;;;;;;;;;;;;;;-144.99;100.00;52631.53;5051139;28;19948;-77
2022/11/26 04:55:58;;;;;;;;;;;;;;;-144.99;100.00;52590.78;5073803;28;20040;-74
2022/11/26 04:58:25;;;;;;;;;;;;;;;-144.99;100.00;52631.53;5030764;28;20323;-73
2022/11/26 05:00:51;;;;;;;;;;;;;;;-144.99;100.00;52582.63;5034362;28;20011;-73
2022/11/26 05:03:20;;;;;;;;;;;;;;;-144.99;100.00;52594.84;5043455;28;20473;-73
2022/11/26 05:05:51;;;;;;;;;;;;;;;-144.99;100.00;52584.66;5054075;28;19991;-71
2022/11/26 05:08:17;;;;;;;;;;;;;;;-144.99;100.00;52558.16;5030327;28;20396;-73
2022/11/26 05:10:44;;;;;;;;;;;;;;;-144.99;100.00;52598.94;5029707;28;19995;-74
2022/11/26 05:13:10;;;;;;;;;;;;;;;-144.99;100.00;52578.53;5033750;28;19976;-72
2022/11/26 05:15:37;;;;;;;;;;;;;;;-144.99;100.00;52619.31;5059133;28;20000;-74
2022/11/26 05:18:04;;;;;;;;;;;;;;;-144.99;100.00;52623.38;5051818;28;19976;-74
2022/11/26 05:20:31;;;;;;;;;;;;;;;-144.99;100.00;52550.00;5053471;28;19928;-72
2022/11/26 05:22:59;;;;;;;;;;;;;;;-144.99;100.00;52607.09;5043886;28;19925;-72
2022/11/26 05:25:25;;;;;;;;;;;;;;;-144.99;100.00;52590.78;5055050;28;20375;-72
2022/11/26 05:27:52;;;;;;;;;;;;;;;-144.99;100.00;52574.47;5046269;28;20119;-73
2022/11/26 05:30:18;;;;;;;;;;;;;;;-144.99;100.00;52578.53;5043919;28;19945;-72
2022/11/26 05:35:20;;;;;;;;;;;;;;;-144.99;100.00;52611.16;5080525;28;19957;-71
2022/11/26 05:37:46;;;;;;;;;;;;;;;-144.99;100.00;52594.84;5088938;28;20275;-71
2022/11/26 05:40:17;;;;;;;;;;;;;;;-144.99;100.00;52550.00;5051509;28;19947;-72
2022/11/26 05:42:43;;;;;;;;;;;;;;;-144.99;100.00;52590.78;5062418;28;19937;-71
2022/11/26 05:45:10;;;;;;;;;;;;;;;-144.99;100.00;52586.69;5062279;28;19969;-72
2022/11/26 05:47:37;;;;;;;;;;;;;;;-144.99;100.00;52600.97;5050323;28;20369;-71
2022/11/26 05:50:04;;;;;;;;;;;;;;;-144.99;100.00;52578.53;5050369;28;20002;-71
2022/11/26 05:52:30;;;;;;;;;;;;;;;-144.99;100.00;52641.72;5050036;28;20614;-72
2022/11/26 05:54:57;;;;;;;;;;;;;;;-144.99;100.00;52582.63;5061360;28;20017;-72
2022/11/26 05:57:25;;;;;;;;;;;;;;;-144.99;100.00;52592.81;5060211;28;19989;-72
2022/11/26 05:59:51;;;;;;;;;;;;;;;-144.99;100.00;52566.31;5057628;28;19965;-72
2022/11/26 06:02:18;;;;;;;;;;;;;;;-144.99;100.00;52607.09;5060968;28;19940;-75
2022/11/26 06:04:44;;;;;;;;;;;;;;;-144.99;100.00;52603.00;5065656;28;20432;-75
2022/11/26 06:07:11;;;;;;;;;;;;;;;-144.99;100.00;52615.25;5060258;28;20008;-75
2022/11/26 06:09:37;;;;;;;;;;;;;;;-144.99;100.00;52598.94;5068143;28;19966;-76
2022/11/26 06:12:04;;;;;;;;;;;;;;;-144.99;100.00;52635.63;5065483;28;19958;-77
2022/11/26 06:14:32;;;;;;;;;;;;;;;-144.99;100.00;52643.78;5059311;28;19955;-76
2022/11/26 06:16:58;;;;;;;;;;;;;;;-144.99;100.00;52611.16;5060030;28;19940;-78
2022/11/26 06:19:25;;;;;;;;;;;;;;;-144.99;100.00;52580.59;5084568;28;19929;-77
2022/11/26 06:21:51;;;;;;;;;;;;;;;-144.99;100.00;52623.38;5063095;28;19972;-78
2022/11/26 06:24:18;;;;;;;;;;;;;;;-144.99;100.00;52596.88;5067500;28;20045;-73
2022/11/26 06:26:44;;;;;;;;;;;;;;;-144.99;100.00;52619.31;5063105;28;20000;-73
2022/11/26 06:29:12;;;;;;;;;;;;;;;-144.99;100.00;52619.31;5067662;28;19946;-73
2022/11/26 06:31:39;;;;;;;;;;;;;;;-144.99;100.00;52590.78;5060046;28;19940;-72
2022/11/26 06:34:06;;;;;;;;;;;;;;;-144.99;100.00;52619.31;5058416;28;20012;-73
2022/11/26 06:36:32;;;;;;;;;;;;;;;-144.99;100.00;52586.69;5060491;28;20333;-73
2022/11/26 06:38:59;;;;;;;;;;;;;;;-144.99;100.00;52586.69;5065157;28;19994;-74
2022/11/26 06:41:25;;;;;;;;;;;;;;;-144.99;100.00;52584.66;5060150;28;19939;-73
2022/11/26 06:43:52;;;;;;;;;;;;;;;-144.99;100.00;52578.53;5063701;28;19951;-74
2022/11/26 06:46:18;;;;;;;;;;;;;;;-144.99;100.00;52619.31;5065754;28;20272;-72
2022/11/26 06:48:46;;;;;;;;;;;;;;;-144.99;100.00;52598.94;5067086;28;19981;-72
2022/11/26 06:51:14;;;;;;;;;;;;;;;-144.99;100.00;52627.47;5068677;28;19994;-71
2022/11/26 06:53:40;;;;;;;;;;;;;;;-144.99;100.00;52639.69;5059742;28;19974;-70
2022/11/26 06:56:08;;;;;;;;;;;;;;;-144.99;100.00;52594.84;5068746;28;19994;-71
2022/11/26 06:58:34;;;;;;;;;;;;;;;-144.99;100.00;52590.78;5069508;28;19958;-72
2022/11/26 07:01:06;;;;;;;;;;;;;;;-144.99;100.00;52603.00;5071610;28;20371;-73
2022/11/26 07:03:33;;;;;;;;;;;;;;;-144.99;100.00;52619.31;5068288;28;20024;-72
2022/11/26 07:06:01;;;;;;;;;;;;;;;-144.99;100.00;52619.31;5067134;28;19943;-72
2022/11/26 07:08:27;;;;;;;;;;;;;;;-144.99;100.00;52594.84;5064711;28;20001;-71
2022/11/26 07:10:54;;;;;;;;;;;;;;;-144.99;100.00;52580.59;5062215;28;20431;-73
2022/11/26 07:13:20;;;;;;;;;;;;;;;-144.99;100.00;52594.84;5067141;28;19953;-72
2022/11/26 07:15:47;;;;;;;;;;;;;;;-144.99;100.00;52605.03;5062335;28;19954;-72
2022/11/26 07:18:13;;;;;;;;;;;;;;;-144.99;100.00;52566.31;5066064;28;19994;-70
2022/11/26 07:20:40;;;;;;;;;;;;;;;-144.99;100.00;52598.94;5071812;28;19978;-71
2022/11/26 07:23:08;;;;;;;;;;;;;;;-144.99;100.00;52590.78;5056780;28;19929;-72
2022/11/26 07:25:34;;;;;;;;;;;;;;;-144.99;100.00;52594.84;5059555;28;19992;-72
2022/11/26 07:28:01;;;;;;;;;;;;;;;-144.99;100.00;52582.63;5065653;28;20022;-71
2022/11/26 07:30:27;;;;;;;;;;;;;;;-144.99;100.00;52633.59;5056500;28;20357;-71
2022/11/26 07:32:54;;;;;;;;;;;;;;;-144.99;100.00;52596.88;5061542;28;20028;-71
2022/11/26 07:35:20;;;;;;;;;;;;;;;-144.99;100.00;52611.16;5066968;28;19950;-72
2022/11/26 07:37:47;;;;;;;;;;;;;;;-144.99;100.00;52584.66;5065812;28;20320;-71
2022/11/26 07:40:15;;;;;;;;;;;;;;;-144.99;100.00;52582.63;5067673;28;20421;-74
2022/11/26 07:42:41;;;;;;;;;;;;;;;-144.99;100.00;52566.31;5074644;28;19925;-75
2022/11/26 07:45:08;;;;;;;;;;;;;;;-144.99;100.00;52615.25;5067276;28;19957;-71
2022/11/26 07:47:35;;;;;;;;;;;;;;;-144.99;100.00;52586.69;5068860;28;19937;-71
2022/11/26 07:50:01;;;;;;;;;;;;;;;-144.99;100.00;52600.97;5067098;28;19963;-72
2022/11/26 07:52:28;;;;;;;;;;;;;;;-144.99;100.00;52592.81;5075530;28;19966;-74
2022/11/26 07:54:54;;;;;;;;;;;;;;;-144.99;100.00;52590.78;5073307;28;19975;-72
2022/11/26 07:57:23;;;;;;;;;;;;;;;-144.99;100.00;52562.25;5074361;28;19963;-73
2022/11/26 07:59:50;;;;;;;;;;;;;;;-144.99;100.00;52627.47;5077311;28;20004;-72
2022/11/26 08:02:17;;;;;;;;;;;;;;;-144.99;100.00;52598.94;5066586;28;20240;-73
2022/11/26 08:04:44;;;;;;;;;;;;;;;-144.99;100.00;52586.69;5072377;28;19951;-72
2022/11/26 08:07:10;;;;;;;;;;;;;;;-144.99;100.00;52590.78;5066052;28;19963;-72
2022/11/26 08:09:37;;;;;;;;;;;;;;;-144.99;100.00;52611.16;5071001;28;19956;-72
2022/11/26 08:12:05;;;;;;;;;;;;;;;-144.99;100.00;52558.16;5068125;28;21866;-73
2022/11/26 08:14:33;;;;;;;;;;;;;;;-144.99;100.00;52627.47;5059164;28;19976;-73
2022/11/26 08:17:00;;;;;;;;;;;;;;;-144.99;100.00;52568.34;5062404;28;20371;-72
2022/11/26 08:19:26;;;;;;;;;;;;;;;-144.99;100.00;52566.31;5066087;28;19938;-73
2022/11/26 08:21:53;;;;;;;;;;;;;;;-144.99;100.00;52584.66;5066714;28;20009;-73
2022/11/26 08:24:19;;;;;;;;;;;;;;;-144.99;100.00;52586.69;5083438;28;19962;-73
2022/11/26 08:26:46;;;;;;;;;;;;;;;-144.99;100.00;52590.78;5073253;28;19993;-72
2022/11/26 08:29:13;;;;;;;;;;;;;;;-144.99;100.00;52598.94;5070641;28;20347;-71
2022/11/26 08:31:41;;;;;;;;;;;;;;;-144.99;100.00;52570.38;5060850;28;19971;-74
2022/11/26 08:34:07;;;;;;;;;;;;;;;-144.99;100.00;52582.63;5068823;28;20380;-76
2022/11/26 08:36:34;;;;;;;;;;;;;;;-144.99;100.00;52603.00;5071655;28;19939;-78
2022/11/26 08:39:00;;;;;;;;;;;;;;;-144.99;100.00;52590.78;5068390;28;19937;-76
2022/11/26 08:41:27;;;;;;;;;;;;;;;-144.99;100.00;52550.00;5059751;28;19941;-76
2022/11/26 08:43:54;;;;;;;;;;;;;;;-144.99;100.00;52611.16;5072916;28;19955;-76
2022/11/26 08:46:21;;;;;;;;;;;;;;;-144.99;100.00;52574.47;5071440;28;19940;-77
2022/11/26 08:48:49;;;;;;;;;;;;;;;-144.99;100.00;52643.78;5066429;28;19961;-76
2022/11/26 08:51:16;;;;;;;;;;;;;;;-144.99;100.00;52560.19;5075366;28;19959;-72
2022/11/26 08:53:43;;;;;;;;;;;;;;;-144.99;100.00;52590.78;5069815;28;20039;-73
2022/11/26 08:56:11;;;;;;;;;;;;;;;-144.99;100.00;52594.84;5071992;28;19939;-74
2022/11/26 08:58:39;;;;;;;;;;;;;;;-144.99;100.00;52596.88;5063741;28;19956;-73
2022/11/26 09:01:07;;;;;;;;;;;;;;;-144.99;100.00;52603.00;5063140;28;19945;-74
2022/11/26 09:03:34;;;;;;;;;;;;;;;-144.99;100.00;52594.84;5076752;28;19977;-74
2022/11/26 09:06:02;;;;;;;;;;;;;;;-144.99;100.00;52588.75;5072023;28;19939;-73
2022/11/26 09:08:30;;;;;;;;;;;;;;;-144.99;100.00;52576.50;5054159;28;19962;-73
2022/11/26 09:10:56;;;;;;;;;;;;;;;-144.99;100.00;52594.84;5059478;28;19943;-73
2022/11/26 09:13:23;;;;;;;;;;;;;;;-144.99;100.00;52615.25;5062583;28;19972;-74
2022/11/26 09:15:50;;;;;;;;;;;;;;;-144.99;100.00;52609.13;5062390;28;19994;-75
2022/11/26 09:18:16;;;;;;;;;;;;;;;-144.99;100.00;52598.94;5061444;28;19933;-73
2022/11/26 09:20:43;;;;;;;;;;;;;;;-144.99;100.00;52566.31;5053921;28;20016;-75
2022/11/26 09:23:11;;;;;;;;;;;;;;;-144.99;100.00;52598.94;5055553;28;19950;-72
2022/11/26 09:25:38;;;;;;;;;;;;;;;-144.99;100.00;52564.28;5052566;28;20411;-72
2022/11/26 09:28:04;;;;;;;;;;;;;;;-144.99;100.00;52584.66;5054882;28;19937;-72
2022/11/26 09:30:31;;;;;;;;;;;;;;;-144.99;100.00;52603.00;5057593;28;20106;-73
2022/11/26 09:32:57;;;;;;;;;;;;;;;-144.99;100.00;52598.94;5063620;28;19935;-74
2022/11/26 09:35:24;;;;;;;;;;;;;;;-144.99;100.00;52584.66;5071816;28;19989;-74
2022/11/26 09:37:50;;;;;;;;;;;;;;;-144.99;100.00;52590.78;5070602;28;19949;-75
2022/11/26 09:40:19;;;;;;;;;;;;;;;-144.99;100.00;52594.84;5077500;28;19943;-74
2022/11/26 09:42:52;;;;;;;;;;;;;;;-144.99;100.00;52588.75;5080796;28;19943;-74
2022/11/26 09:45:28;;;;;;;;;;;;;;;-144.99;100.00;52578.53;5073016;28;19945;-74
2022/11/26 09:47:55;;;;;;;;;;;;;;;-144.99;100.00;52558.16;5069166;28;19939;-74
2022/11/26 09:50:25;;;;;;;;;;;;;;;-144.99;100.00;52578.53;5060997;28;20430;-74
2022/11/26 09:52:57;;;;;;;;;;;;;;;-144.99;100.00;52590.78;5066364;28;20167;-73
2022/11/26 09:55:27;;;;;;;;;;;;;;;-144.99;100.00;52574.47;5066380;28;20386;-75
2022/11/26 09:58:01;;;;;;;;;;;;;;;-144.99;100.00;52582.63;5069167;28;19939;-75
2022/11/26 10:00:31;;;;;;;;;;;;;;;-144.99;100.00;52590.78;5074703;28;19942;-72
2022/11/26 10:02:58;;;;;;;;;;;;;;;-144.99;100.00;52550.00;5069076;28;19941;-73
2022/11/26 10:05:31;;;;;;;;;;;;;;;-144.99;100.00;52566.31;5055446;28;20314;-74
2022/11/26 10:08:03;;;;;;;;;;;;;;;-144.99;100.00;52594.84;5057392;28;19947;-74
2022/11/26 10:10:36;;;;;;;;;;;;;;;-144.99;100.00;52603.00;5055673;28;19959;-73
2022/11/26 10:13:07;;;;;;;;;;;;;;;-144.99;100.00;52556.13;5062634;28;20066;-73
2022/11/26 10:15:37;;;;;;;;;;;;;;;-144.99;100.00;52582.63;5063520;28;19943;-73
2022/11/26 10:18:11;;;;;;;;;;;;;;;-144.99;100.00;52547.97;5058182;28;19935;-73
2022/11/26 10:20:53;;;;;;;;;;;;;;;-144.99;100.00;52594.84;5078369;28;19951;-73
2022/11/26 10:23:23;;;;;;;;;;;;;;;-144.99;100.00;52607.09;5062277;28;20361;-73
2022/11/26 10:25:54;;;;;;;;;;;;;;;-144.99;100.00;52578.53;5062903;28;20004;-74
2022/11/26 10:28:22;;;;;;;;;;;;;;;-144.99;100.00;52566.31;5060038;28;19992;-74
2022/11/26 10:30:52;;;;;;;;;;;;;;;-144.99;100.00;52541.84;5063173;28;20370;-73
2022/11/26 10:33:20;;;;;;;;;;;;;;;-144.99;100.00;52541.84;5057674;28;19967;-73
2022/11/26 10:35:47;;;;;;;;;;;;;;;-144.99;100.00;52588.75;5063088;28;19941;-73
2022/11/26 10:38:14;;;;;;;;;;;;;;;-144.99;100.00;52590.78;5058097;28;19975;-75
2022/11/26 10:40:40;;;;;;;;;;;;;;;-144.99;100.00;52586.69;5056682;28;20017;-74
2022/11/26 10:43:13;;;;;;;;;;;;;;;-144.99;100.00;52570.38;5063578;28;19944;-74
2022/11/26 10:45:41;;;;;;;;;;;;;;;-144.99;100.00;52519.44;5063689;28;20005;-74
2022/11/26 10:48:24;;;;;;;;;;;;;;;-144.99;100.00;52617.28;5066213;28;20197;-72
2022/11/26 10:50:55;;;;;;;;;;;;;;;-144.99;100.00;52590.78;5068559;28;20498;-74
2022/11/26 10:53:23;;;;;;;;;;;;;;;-144.99;100.00;52578.53;5056324;28;20492;-73
2022/11/26 10:55:50;;;;;;;;;;;;;;;-144.99;100.00;52566.31;5066731;28;19944;-72
2022/11/26 10:58:20;;;;;;;;;;;;;;;-144.99;100.00;52554.09;5080153;28;19950;-74
2022/11/26 11:00:54;;;;;;;;;;;;;;;-144.99;100.00;52513.31;5063769;28;19947;-74
2022/11/26 11:03:22;;;;;;;;;;;;;;;-144.99;100.00;52558.16;5050428;28;19968;-73
2022/11/26 11:05:49;;;;;;;;;;;;;;;-144.99;100.00;52517.41;5059621;28;19955;-73
2022/11/26 11:08:27;;;;;;;;;;;;;;;-144.99;100.00;52541.84;5058229;28;19928;-73
2022/11/26 11:10:55;;;;;;;;;;;;;;;-144.99;100.00;52533.69;5065657;28;20100;-73
2022/11/26 11:13:23;;;;;;;;;;;;;;;-144.99;100.00;52558.16;5050533;28;20021;-73
2022/11/26 11:15:59;;;;;;;;;;;;;;;-144.99;100.00;52541.84;5057970;28;20010;-74
2022/11/26 11:18:26;;;;;;;;;;;;;;;-144.99;100.00;52558.16;5064053;28;19990;-73
2022/11/26 11:20:54;;;;;;;;;;;;;;;-144.99;100.00;52564.28;5059976;28;19943;-73
2022/11/26 11:23:21;;;;;;;;;;;;;;;-144.99;100.00;52572.44;5061688;28;20004;-73
2022/11/26 11:25:57;;;;;;;;;;;;;;;-144.99;100.00;52570.38;5052518;28;19967;-72
2022/11/26 11:28:26;;;;;;;;;;;;;;;-144.99;100.00;52541.84;5063079;28;19935;-75
2022/11/26 11:30:59;;;;;;;;;;;;;;;-144.99;100.00;52545.94;5061256;28;19967;-74
2022/11/26 11:33:27;;;;;;;;;;;;;;;-144.99;100.00;52562.25;5054399;28;19924;-73
2022/11/26 11:36:01;;;;;;;;;;;;;;;-144.99;100.00;52572.44;5084010;22;19959;-69
2022/11/26 11:38:29;;;;;;;;;;;;;;;-144.99;100.00;52566.31;5060695;28;20258;-71
2022/11/26 11:40:55;;;;;;;;;;;;;;;-144.99;100.00;52566.31;5054655;28;19959;-70
2022/11/26 11:43:24;;;;;;;;;;;;;;;-144.99;100.00;52562.25;5053906;28;20457;-70
2022/11/26 11:45:59;;;;;;;;;;;;;;;-144.99;100.00;52574.47;5053842;28;20309;-70
2022/11/26 11:48:33;;;;;;;;;;;;;;;-144.99;100.00;52562.25;5033457;28;19945;-70
2022/11/26 11:51:03;;;;;;;;;;;;;;;-144.99;100.00;52550.00;5035785;28;19971;-70
2022/11/26 11:53:34;;;;;;;;;;;;;;;-144.99;100.00;52564.28;5048963;28;20030;-70
2022/11/26 11:56:10;;;;;;;;;;;;;;;-144.99;100.00;52588.75;5053369;28;19939;-70
2022/11/26 11:58:42;;;;;;;;;;;;;;;-144.99;100.00;52554.09;5062337;28;19936;-69
2022/11/26 12:01:16;;;;;;;;;;;;;;;-144.99;100.00;52570.38;5045179;28;19963;-71
2022/11/26 12:04:03;;;;;;;;;;;;;;;-144.99;100.00;52564.28;5046811;28;20130;-69
2022/11/26 12:06:38;;;;;;;;;;;;;;;-144.99;100.00;52550.00;5042764;28;19993;-69
2022/11/26 12:09:12;;;;;;;;;;;;;;;-144.99;100.00;52607.09;5031334;28;19954;-69
2022/11/26 12:11:45;;;;;;;;;;;;;;;-144.99;100.00;52556.13;5030790;28;19972;-71
2022/11/26 12:14:15;;;;;;;;;;;;;;;-144.99;100.00;52572.44;5049153;28;20008;-71
2022/11/26 12:16:46;;;;;;;;;;;;;;;-144.99;100.00;52592.81;5047677;28;19943;-70
2022/11/26 12:19:18;;;;;;;;;;;;;;;-144.99;100.00;52570.38;5042046;28;19964;-70
2022/11/26 12:21:48;;;;;;;;;;;;;;;-144.99;100.00;52574.47;5044858;28;19959;-70
2022/11/26 12:24:20;;;;;;;;;;;;;;;-144.99;100.00;52578.53;5042138;28;19943;-70
2022/11/26 12:26:48;;;;;;;;;;;;;;;-144.99;100.00;52517.41;5045712;28;19986;-70